createdAt,value
2022-09-24T00:00:07.616Z,99059.63
2022-09-24T00:01:16.003Z,99054.16
2022-09-24T00:02:19.428Z,99050.38
2022-09-24T00:03:23.718Z,99046.06
2022-09-24T00:04:27.417Z,99049.53
2022-09-24T00:05:29.660Z,99046.13
2022-09-24T00:06:35.976Z,99046.63
2022-09-24T00:07:38.188Z,99049.94
2022-09-24T00:08:41.743Z,99043.41
2022-09-24T00:09:43.932Z,99048.66
2022-09-24T00:10:48.923Z,99047.56
2022-09-24T00:11:53.223Z,99045.50
2022-09-24T00:12:55.739Z,99055.97
2022-09-24T00:13:59.300Z,99048.75
2022-09-24T00:15:01.542Z,99054.53
2022-09-24T00:16:07.650Z,99047.50
2022-09-24T00:17:09.909Z,99049.59
2022-09-24T00:18:12.878Z,99045.03
2022-09-24T00:19:15.200Z,99048.44
2022-09-24T00:20:17.494Z,99047.44
2022-09-24T00:21:22.695Z,99049.28
2022-09-24T00:22:24.992Z,99047.28
2022-09-24T00:23:27.362Z,99041.84
2022-09-24T00:24:47.978Z,99047.44
2022-09-24T00:26:09.173Z,99035.75
2022-09-24T00:27:11.622Z,99039.59
2022-09-24T00:28:14.265Z,99040.38
2022-09-24T00:29:21.743Z,99032.81
2022-09-24T00:30:24.399Z,99028.31
2022-09-24T00:31:27.607Z,99031.00
2022-09-24T00:32:30.243Z,99025.91
2022-09-24T00:33:36.480Z,99019.72
2022-09-24T00:34:39.196Z,99018.03
2022-09-24T00:35:42.085Z,99019.66
2022-09-24T00:36:46.650Z,99019.25
2022-09-24T00:37:48.921Z,99023.59
2022-09-24T00:38:56.802Z,99021.81
2022-09-24T00:39:59.677Z,99025.25
2022-09-24T00:41:03.233Z,99022.22
2022-09-24T00:42:05.731Z,99019.44
2022-09-24T00:43:31.104Z,99027.53
2022-09-24T00:44:45.251Z,99021.19
2022-09-24T00:45:48.066Z,99013.03
2022-09-24T00:46:50.711Z,99016.03
2022-09-24T00:47:54.314Z,99014.34
2022-09-24T00:49:07.092Z,99009.75
2022-09-24T00:50:34.705Z,99009.63
2022-09-24T00:51:38.128Z,99006.22
2022-09-24T00:52:45.722Z,98999.63
2022-09-24T00:53:52.457Z,98996.63
2022-09-24T00:54:55.386Z,98995.47
2022-09-24T00:55:58.224Z,98996.81
2022-09-24T00:57:01.154Z,98996.88
2022-09-24T00:58:07.173Z,98995.81
2022-09-24T00:59:13.877Z,98991.66
2022-09-24T01:00:16.391Z,98994.50
2022-09-24T01:01:22.913Z,98988.16
2022-09-24T01:02:25.288Z,98993.19
2022-09-24T01:03:28.906Z,98993.72
2022-09-24T01:04:31.830Z,99003.69
2022-09-24T01:05:36.187Z,98989.59
2022-09-24T01:06:38.632Z,98990.44
2022-09-24T01:07:41.072Z,98988.72
2022-09-24T01:08:44.233Z,98995.97
2022-09-24T01:09:47.111Z,98991.50
2022-09-24T01:10:56.414Z,98991.19
2022-09-24T01:12:06.275Z,98992.50
2022-09-24T01:13:28.993Z,99001.41
2022-09-24T01:14:34.155Z,98997.69
2022-09-24T01:15:47.262Z,98993.38
2022-09-24T01:17:16.761Z,98989.81
2022-09-24T01:18:32.390Z,98995.06
2022-09-24T01:19:49.539Z,98988.25
2022-09-24T01:21:03.636Z,98991.44
2022-09-24T01:22:21.929Z,98975.81
2022-09-24T01:23:48.746Z,98985.56
2022-09-24T01:25:01.568Z,98978.25
2022-09-24T01:26:36.320Z,98978.81
2022-09-24T01:27:56.965Z,98977.16
2022-09-24T01:29:34.904Z,98981.00
2022-09-24T01:30:42.259Z,98971.22
2022-09-24T01:31:53.426Z,98979.50
2022-09-24T01:33:08.658Z,98971.34
2022-09-24T01:34:12.629Z,98970.19
2022-09-24T01:35:57.991Z,98965.06
2022-09-24T01:37:03.729Z,98974.03
2022-09-24T01:38:18.394Z,98978.22
2022-09-24T01:39:21.673Z,98974.88
2022-09-24T01:40:27.670Z,98968.25
2022-09-24T01:41:34.315Z,98970.22
2022-09-24T01:42:40.306Z,98967.53
2022-09-24T01:43:43.440Z,98970.63
2022-09-24T01:44:47.745Z,98963.19
2022-09-24T01:45:50.662Z,98956.94
2022-09-24T01:46:54.140Z,98953.31
2022-09-24T01:47:56.582Z,98953.09
2022-09-24T01:48:59.257Z,98952.88
2022-09-24T01:50:03.106Z,98952.69
2022-09-24T01:51:44.377Z,98951.00
2022-09-24T01:53:00.246Z,98946.97
2022-09-24T01:54:09.730Z,98946.13
2022-09-24T01:55:15.940Z,98937.00
2022-09-24T01:56:26.745Z,98943.13
2022-09-24T01:57:52.648Z,98934.44
2022-09-24T01:59:06.789Z,98938.53
2022-09-24T02:00:18.165Z,98931.13
2022-09-24T02:01:30.981Z,98931.19
2022-09-24T02:02:35.623Z,98933.06
2022-09-24T02:03:45.685Z,98932.28
2022-09-24T02:04:54.389Z,98932.69
2022-09-24T02:06:04.432Z,98929.66
2022-09-24T02:07:33.541Z,98935.31
2022-09-24T02:08:46.390Z,98935.13
2022-09-24T02:09:49.671Z,98926.56
2022-09-24T02:11:00.990Z,98930.81
2022-09-24T02:12:11.276Z,98924.41
2022-09-24T02:13:17.387Z,98935.91
2022-09-24T02:14:20.240Z,98927.88
2022-09-24T02:15:32.845Z,98927.88
2022-09-24T02:16:48.121Z,98925.13
2022-09-24T02:17:54.821Z,98921.84
2022-09-24T02:19:00.724Z,98936.59
2022-09-24T02:20:08.732Z,98932.28
2022-09-24T02:21:13.797Z,98924.19
2022-09-24T02:22:17.582Z,98924.72
2022-09-24T02:23:20.434Z,98925.19
2022-09-24T02:24:30.452Z,98927.59
2022-09-24T02:25:57.843Z,98924.16
2022-09-24T02:27:00.482Z,98922.97
2022-09-24T02:28:03.302Z,98928.75
2022-09-24T02:29:05.918Z,98919.25
2022-09-24T02:30:09.128Z,98925.66
2022-09-24T02:31:16.253Z,98928.50
2022-09-24T02:32:21.591Z,98915.72
2022-09-24T02:33:44.207Z,98921.53
2022-09-24T02:34:51.706Z,98922.16
2022-09-24T02:35:53.923Z,98924.81
2022-09-24T02:37:00.578Z,98915.38
2022-09-24T02:38:06.217Z,98911.88
2022-09-24T02:39:08.734Z,98908.03
2022-09-24T02:40:13.918Z,98913.81
2022-09-24T02:41:16.783Z,98907.16
2022-09-24T02:42:20.343Z,98916.81
2022-09-24T02:43:22.653Z,98913.41
2022-09-24T02:44:24.876Z,98909.38
2022-09-24T02:45:27.192Z,98910.31
2022-09-24T02:46:29.763Z,98906.16
2022-09-24T02:47:32.896Z,98905.00
2022-09-24T02:48:37.086Z,98902.84
2022-09-24T02:49:40.078Z,98903.25
2022-09-24T02:50:42.591Z,98895.72
2022-09-24T02:51:45.043Z,98905.00
2022-09-24T02:52:47.304Z,98909.81
2022-09-24T02:53:50.054Z,98914.34
2022-09-24T02:54:52.250Z,98918.59
2022-09-24T02:55:54.434Z,98924.72
2022-09-24T02:56:57.002Z,98921.78
2022-09-24T02:57:59.889Z,98920.09
2022-09-24T02:59:02.772Z,98922.91
2022-09-24T03:00:06.261Z,98920.69
2022-09-24T03:01:08.596Z,98912.88
2022-09-24T03:02:10.945Z,98909.59
2022-09-24T03:03:13.355Z,98915.03
2022-09-24T03:04:16.370Z,98920.28
2022-09-24T03:05:18.605Z,98916.34
2022-09-24T03:06:21.310Z,98909.09
2022-09-24T03:07:23.629Z,98907.03
2022-09-24T03:08:26.166Z,98902.22
2022-09-24T03:09:28.793Z,98905.16
2022-09-24T03:10:31.707Z,98902.16
2022-09-24T03:11:35.539Z,98900.00
2022-09-24T03:12:37.884Z,98896.09
2022-09-24T03:13:40.514Z,98893.25
2022-09-24T03:14:42.840Z,98898.44
2022-09-24T03:15:46.215Z,98896.69
2022-09-24T03:16:48.523Z,98891.41
2022-09-24T03:17:50.722Z,98898.44
2022-09-24T03:18:52.939Z,98901.22
2022-09-24T03:19:55.230Z,98897.03
2022-09-24T03:20:59.531Z,98901.53
2022-09-24T03:22:01.861Z,98895.66
2022-09-24T03:23:04.170Z,98897.81
2022-09-24T03:24:06.501Z,98887.75
2022-09-24T03:25:09.431Z,98890.66
2022-09-24T03:26:11.786Z,98882.19
2022-09-24T03:27:14.078Z,98881.44
2022-09-24T03:28:17.224Z,98887.31
2022-09-24T03:29:39.394Z,98885.00
2022-09-24T03:31:00.157Z,98885.00
2022-09-24T03:32:02.873Z,98890.88
2022-09-24T03:33:05.214Z,98879.41
2022-09-24T03:34:07.533Z,98874.84
2022-09-24T03:35:11.355Z,98874.72
2022-09-24T03:36:16.244Z,98874.25
2022-09-24T03:37:18.453Z,98874.69
2022-09-24T03:38:20.708Z,98875.94
2022-09-24T03:39:23.533Z,98873.03
2022-09-24T03:40:26.450Z,98874.63
2022-09-24T03:41:29.123Z,98884.28
2022-09-24T03:42:32.432Z,98880.66
2022-09-24T03:43:35.922Z,98883.59
2022-09-24T03:44:38.400Z,98881.81
2022-09-24T03:45:40.831Z,98882.28
2022-09-24T03:46:43.577Z,98883.66
2022-09-24T03:47:45.825Z,98885.94
2022-09-24T03:48:49.047Z,98888.47
2022-09-24T03:49:51.333Z,98890.88
2022-09-24T03:50:53.948Z,98885.81
2022-09-24T03:51:56.169Z,98883.91
2022-09-24T03:52:58.353Z,98890.19
2022-09-24T03:54:00.601Z,98891.53
2022-09-24T03:55:02.834Z,98889.16
2022-09-24T03:56:07.259Z,98892.84
2022-09-24T03:57:09.575Z,98896.06
2022-09-24T03:58:11.837Z,98880.91
2022-09-24T03:59:14.598Z,98877.78
2022-09-24T04:00:16.879Z,98880.91
2022-09-24T04:01:21.275Z,98886.09
2022-09-24T04:02:23.938Z,98878.78
2022-09-24T04:03:26.338Z,98881.78
2022-09-24T04:04:28.558Z,98875.88
2022-09-24T04:05:31.416Z,98874.19
2022-09-24T04:06:33.728Z,98883.47
2022-09-24T04:07:35.987Z,98875.25
2022-09-24T04:08:38.218Z,98876.31
2022-09-24T04:09:41.521Z,98882.41
2022-09-24T04:10:46.328Z,98876.88
2022-09-24T04:11:48.661Z,98871.69
2022-09-24T04:12:52.194Z,98876.09
2022-09-24T04:13:54.629Z,98872.53
2022-09-24T04:14:56.849Z,98867.53
2022-09-24T04:16:03.795Z,98873.53
2022-09-24T04:17:06.090Z,98869.91
2022-09-24T04:18:08.826Z,98872.59
2022-09-24T04:19:18.749Z,98865.09
2022-09-24T04:20:22.671Z,98863.56
2022-09-24T04:21:24.903Z,98870.91
2022-09-24T04:22:29.101Z,98867.53
2022-09-24T04:23:31.461Z,98860.53
2022-09-24T04:24:34.231Z,98870.91
2022-09-24T04:25:37.254Z,98856.28
2022-09-24T04:26:39.516Z,98860.78
2022-09-24T04:27:42.872Z,98863.97
2022-09-24T04:28:45.128Z,98854.22
2022-09-24T04:29:47.417Z,98867.72
2022-09-24T04:30:49.688Z,98869.34
2022-09-24T04:31:52.041Z,98865.91
2022-09-24T04:32:54.540Z,98865.09
2022-09-24T04:33:56.744Z,98866.78
2022-09-24T04:35:01.067Z,98865.44
2022-09-24T04:36:05.281Z,98867.94
2022-09-24T04:37:09.491Z,98860.72
2022-09-24T04:38:12.089Z,98862.88
2022-09-24T04:39:15.504Z,98867.13
2022-09-24T04:40:18.247Z,98867.44
2022-09-24T04:41:20.651Z,98857.22
2022-09-24T04:42:22.881Z,98865.72
2022-09-24T04:43:25.050Z,98862.88
2022-09-24T04:44:30.081Z,98853.47
2022-09-24T04:45:33.990Z,98861.34
2022-09-24T04:46:36.175Z,98857.50
2022-09-24T04:47:40.837Z,98856.63
2022-09-24T04:48:43.452Z,98859.34
2022-09-24T04:49:45.789Z,98852.38
2022-09-24T04:50:48.093Z,98847.84
2022-09-24T04:51:50.311Z,98844.22
2022-09-24T04:52:53.056Z,98853.16
2022-09-24T04:53:55.263Z,98849.91
2022-09-24T04:54:58.205Z,98850.59
2022-09-24T04:56:00.528Z,98851.88
2022-09-24T04:57:02.700Z,98851.00
2022-09-24T04:58:04.972Z,98850.28
2022-09-24T04:59:07.310Z,98850.69
2022-09-24T05:00:15.326Z,98852.38
2022-09-24T05:01:17.921Z,98845.34
2022-09-24T05:02:20.411Z,98852.50
2022-09-24T05:03:22.914Z,98845.34
2022-09-24T05:04:25.528Z,98847.44
2022-09-24T05:05:28.199Z,98847.03
2022-09-24T05:06:30.429Z,98853.94
2022-09-24T05:07:32.624Z,98858.47
2022-09-24T05:08:34.831Z,98855.47
2022-09-24T05:09:37.555Z,98862.09
2022-09-24T05:10:39.873Z,98866.72
2022-09-24T05:11:42.101Z,98864.81
2022-09-24T05:12:44.315Z,98868.44
2022-09-24T05:13:46.550Z,98869.44
2022-09-24T05:14:48.742Z,98861.41
2022-09-24T05:15:51.113Z,98862.25
2022-09-24T05:16:54.206Z,98870.47
2022-09-24T05:17:56.552Z,98857.72
2022-09-24T05:18:58.845Z,98863.28
2022-09-24T05:20:01.379Z,98862.13
2022-09-24T05:21:03.703Z,98861.22
2022-09-24T05:22:06.137Z,98866.09
2022-09-24T05:23:08.425Z,98860.25
2022-09-24T05:24:10.623Z,98861.63
2022-09-24T05:25:14.726Z,98863.56
2022-09-24T05:26:35.665Z,98865.81
2022-09-24T05:27:37.943Z,98865.75
2022-09-24T05:28:42.178Z,98865.88
2022-09-24T05:29:44.479Z,98852.63
2022-09-24T05:30:47.306Z,98858.22
2022-09-24T05:31:49.995Z,98852.69
2022-09-24T05:32:52.869Z,98856.94
2022-09-24T05:33:57.441Z,98850.81
2022-09-24T05:34:59.650Z,98859.34
2022-09-24T05:36:01.907Z,98864.47
2022-09-24T05:37:04.815Z,98859.09
2022-09-24T05:38:07.028Z,98858.13
2022-09-24T05:39:11.671Z,98862.13
2022-09-24T05:40:32.387Z,98861.03
2022-09-24T05:41:34.668Z,98862.72
2022-09-24T05:42:36.901Z,98866.47
2022-09-24T05:43:41.043Z,98865.19
2022-09-24T05:44:46.411Z,98861.34
2022-09-24T05:45:50.954Z,98867.38
2022-09-24T05:46:53.327Z,98868.13
2022-09-24T05:47:55.837Z,98870.91
2022-09-24T05:48:58.475Z,98872.72
2022-09-24T05:50:00.706Z,98884.75
2022-09-24T05:51:03.634Z,98883.31
2022-09-24T05:52:06.496Z,98881.97
2022-09-24T05:53:09.366Z,98885.06
2022-09-24T05:54:11.644Z,98880.16
2022-09-24T05:55:14.047Z,98877.00
2022-09-24T05:56:16.920Z,98873.38
2022-09-24T05:57:19.629Z,98874.44
2022-09-24T05:58:22.007Z,98880.16
2022-09-24T05:59:24.928Z,98870.94
2022-09-24T06:00:27.183Z,98870.59
2022-09-24T06:01:32.606Z,98877.25
2022-09-24T06:02:34.984Z,98866.75
2022-09-24T06:03:37.233Z,98869.72
2022-09-24T06:04:39.673Z,98863.84
2022-09-24T06:05:49.548Z,98871.78
2022-09-24T06:06:52.171Z,98873.25
2022-09-24T06:07:54.743Z,98873.47
2022-09-24T06:08:57.136Z,98869.56
2022-09-24T06:10:00.722Z,98872.75
2022-09-24T06:11:05.290Z,98873.53
2022-09-24T06:12:08.269Z,98874.63
2022-09-24T06:13:11.524Z,98873.72
2022-09-24T06:14:14.960Z,98881.75
2022-09-24T06:15:17.184Z,98880.91
2022-09-24T06:16:19.807Z,98879.44
2022-09-24T06:17:22.160Z,98873.22
2022-09-24T06:18:24.530Z,98869.94
2022-09-24T06:19:26.787Z,98875.22
2022-09-24T06:20:29.392Z,98860.59
2022-09-24T06:21:33.196Z,98866.41
2022-09-24T06:22:35.724Z,98868.72
2022-09-24T06:23:39.652Z,98869.56
2022-09-24T06:24:42.274Z,98864.00
2022-09-24T06:25:49.710Z,98867.41
2022-09-24T06:26:52.343Z,98873.72
2022-09-24T06:28:02.636Z,98880.69
2022-09-24T06:29:05.542Z,98882.06
2022-09-24T06:30:08.689Z,98890.34
2022-09-24T06:31:12.468Z,98883.53
2022-09-24T06:32:14.789Z,98887.97
2022-09-24T06:33:17.207Z,98886.03
2022-09-24T06:34:19.530Z,98884.56
2022-09-24T06:35:21.823Z,98893.03
2022-09-24T06:36:24.100Z,98885.94
2022-09-24T06:37:26.336Z,98892.97
2022-09-24T06:38:30.650Z,98899.00
2022-09-24T06:39:32.853Z,98891.34
2022-09-24T06:40:37.358Z,98900.28
2022-09-24T06:41:39.951Z,98895.97
2022-09-24T06:42:42.748Z,98896.69
2022-09-24T06:43:45.684Z,98900.84
2022-09-24T06:44:48.267Z,98908.81
2022-09-24T06:45:50.528Z,98906.97
2022-09-24T06:46:52.835Z,98902.72
2022-09-24T06:47:56.603Z,98904.44
2022-09-24T06:48:58.780Z,98897.84
2022-09-24T06:50:01.003Z,98893.69
2022-09-24T06:51:05.153Z,98897.13
2022-09-24T06:52:07.471Z,98889.81
2022-09-24T06:53:10.926Z,98891.94
2022-09-24T06:54:13.155Z,98884.28
2022-09-24T06:55:15.547Z,98884.13
2022-09-24T06:56:17.730Z,98882.59
2022-09-24T06:57:19.905Z,98883.84
2022-09-24T06:58:26.505Z,98894.13
2022-09-24T06:59:29.584Z,98895.66
2022-09-24T07:00:32.542Z,98891.91
2022-09-24T07:01:34.967Z,98903.47
2022-09-24T07:02:37.373Z,98908.47
2022-09-24T07:03:40.187Z,98918.34
2022-09-24T07:04:42.363Z,98898.97
2022-09-24T07:05:44.556Z,98914.19
2022-09-24T07:07:05.632Z,98919.00
2022-09-24T07:08:07.918Z,98911.97
2022-09-24T07:09:10.095Z,98913.22
2022-09-24T07:10:13.317Z,98902.72
2022-09-24T07:11:15.842Z,98903.41
2022-09-24T07:12:18.057Z,98901.34
2022-09-24T07:13:21.493Z,98901.34
2022-09-24T07:14:23.797Z,98900.84
2022-09-24T07:15:26.091Z,98904.16
2022-09-24T07:16:28.327Z,98896.94
2022-09-24T07:17:33.928Z,98904.31
2022-09-24T07:18:38.577Z,98908.56
2022-09-24T07:19:41.440Z,98901.34
2022-09-24T07:20:43.833Z,98907.56
2022-09-24T07:21:46.249Z,98899.94
2022-09-24T07:22:48.529Z,98908.13
2022-09-24T07:23:55.106Z,98913.84
2022-09-24T07:25:00.096Z,98906.78
2022-09-24T07:26:02.486Z,98917.31
2022-09-24T07:27:06.143Z,98912.50
2022-09-24T07:28:11.294Z,98916.03
2022-09-24T07:29:13.659Z,98920.53
2022-09-24T07:30:16.382Z,98912.84
2022-09-24T07:31:18.824Z,98915.47
2022-09-24T07:32:24.007Z,98914.53
2022-09-24T07:33:31.570Z,98916.13
2022-09-24T07:34:34.228Z,98915.69
2022-09-24T07:35:40.092Z,98917.03
2022-09-24T07:36:43.064Z,98917.63
2022-09-24T07:37:45.544Z,98921.06
2022-09-24T07:38:48.425Z,98923.78
2022-09-24T07:39:50.787Z,98923.78
2022-09-24T07:40:58.381Z,98929.47
2022-09-24T07:42:02.580Z,98929.59
2022-09-24T07:43:12.295Z,98928.28
2022-09-24T07:44:15.183Z,98922.38
2022-09-24T07:45:17.661Z,98926.63
2022-09-24T07:46:20.198Z,98924.22
2022-09-24T07:47:23.006Z,98921.16
2022-09-24T07:48:25.460Z,98920.13
2022-09-24T07:49:32.107Z,98930.75
2022-09-24T07:50:39.229Z,98932.38
2022-09-24T07:51:41.789Z,98931.53
2022-09-24T07:52:50.054Z,98939.38
2022-09-24T07:53:52.898Z,98938.50
2022-09-24T07:54:55.507Z,98936.22
2022-09-24T07:56:01.229Z,98939.28
2022-09-24T07:57:03.907Z,98939.69
2022-09-24T07:58:14.090Z,98936.28
2022-09-24T07:59:16.481Z,98936.41
2022-09-24T08:00:20.435Z,98936.41
2022-09-24T08:01:22.962Z,98939.13
2022-09-24T08:02:25.358Z,98937.25
2022-09-24T08:03:28.045Z,98933.78
2022-09-24T08:04:31.815Z,98930.00
2022-09-24T08:05:34.502Z,98938.59
2022-09-24T08:06:40.506Z,98940.28
2022-09-24T08:07:55.499Z,98934.47
2022-09-24T08:08:58.365Z,98946.59
2022-09-24T08:10:01.578Z,98942.56
2022-09-24T08:11:05.690Z,98940.31
2022-09-24T08:12:09.563Z,98944.47
2022-09-24T08:13:12.195Z,98941.19
2022-09-24T08:14:14.808Z,98951.72
2022-09-24T08:15:17.615Z,98950.13
2022-09-24T08:16:21.461Z,98944.94
2022-09-24T08:17:24.225Z,98947.22
2022-09-24T08:18:28.026Z,98952.28
2022-09-24T08:19:33.635Z,98948.13
2022-09-24T08:20:37.988Z,98946.53
2022-09-24T08:21:40.375Z,98951.91
2022-09-24T08:22:43.018Z,98948.00
2022-09-24T08:23:45.716Z,98949.44
2022-09-24T08:24:48.093Z,98951.75
2022-09-24T08:25:50.798Z,98954.97
2022-09-24T08:26:53.277Z,98950.72
2022-09-24T08:27:55.626Z,98942.81
2022-09-24T08:28:58.536Z,98948.56
2022-09-24T08:30:01.177Z,98950.44
2022-09-24T08:31:08.870Z,98952.22
2022-09-24T08:32:11.817Z,98946.09
2022-09-24T08:33:15.411Z,98954.06
2022-09-24T08:34:17.881Z,98949.47
2022-09-24T08:35:20.340Z,98951.00
2022-09-24T08:36:22.713Z,98946.63
2022-09-24T08:37:25.348Z,98946.84
2022-09-24T08:40:41.173Z,98943.06
2022-09-24T08:42:12.863Z,98936.19
2022-09-24T08:43:45.496Z,98955.59
2022-09-24T08:45:07.799Z,98947.44
2022-09-24T08:46:37.367Z,98947.94
2022-09-24T08:47:46.001Z,98954.22
2022-09-24T08:48:52.937Z,98952.63
2022-09-24T08:50:02.344Z,98949.44
2022-09-24T08:51:11.845Z,98947.06
2022-09-24T08:52:33.903Z,98956.22
2022-09-24T08:53:49.038Z,98948.97
2022-09-24T08:54:52.990Z,98947.66
2022-09-24T08:56:03.041Z,98947.84
2022-09-24T08:57:13.060Z,98952.03
2022-09-24T08:58:15.193Z,98947.22
2022-09-24T08:59:30.382Z,98944.94
2022-09-24T09:00:39.570Z,98952.13
2022-09-24T09:01:57.364Z,98961.34
2022-09-24T09:03:14.315Z,98957.94
2022-09-24T09:04:30.804Z,98952.88
2022-09-24T09:06:01.485Z,98955.25
2022-09-24T09:07:13.278Z,98957.03
2022-09-24T09:08:50.601Z,98953.34
2022-09-24T09:09:59.981Z,98953.25
2022-09-24T09:11:04.705Z,98955.81
2022-09-24T09:12:14.216Z,98953.25
2022-09-24T09:13:22.764Z,98954.50
2022-09-24T09:14:42.126Z,98964.41
2022-09-24T09:15:54.198Z,98961.69
2022-09-24T09:17:02.822Z,98961.41
2022-09-24T09:18:24.832Z,98963.53
2022-09-24T09:19:37.041Z,98963.16
2022-09-24T09:20:42.838Z,98960.91
2022-09-24T09:22:13.028Z,98963.44
2022-09-24T09:23:40.959Z,98966.94
2022-09-24T09:24:52.566Z,98965.03
2022-09-24T09:25:57.079Z,98969.56
2022-09-24T09:27:00.111Z,98965.91
2022-09-24T09:28:14.252Z,98974.28
2022-09-24T09:29:17.028Z,98971.19
2022-09-24T09:30:21.776Z,98973.63
2022-09-24T09:31:44.132Z,98975.53
2022-09-24T09:33:09.152Z,98981.09
2022-09-24T09:34:41.700Z,98982.91
2022-09-24T09:36:19.831Z,98984.19
2022-09-24T09:38:03.964Z,98981.66
2022-09-24T09:39:31.306Z,98984.31
2022-09-24T09:40:42.056Z,98984.03
2022-09-24T09:41:55.927Z,98985.81
2022-09-24T09:43:09.142Z,98988.19
2022-09-24T09:44:19.264Z,98983.38
2022-09-24T09:45:54.289Z,98978.09
2022-09-24T09:47:35.931Z,98980.19
2022-09-24T09:49:05.394Z,98986.09
2022-09-24T09:50:18.018Z,98983.09
2022-09-24T09:51:24.021Z,98980.41
2022-09-24T09:52:29.452Z,98984.19
2022-09-24T09:53:32.459Z,98974.69
2022-09-24T09:54:39.437Z,98985.56
2022-09-24T09:55:41.896Z,98977.44
2022-09-24T09:56:50.219Z,98980.53
2022-09-24T09:57:54.255Z,98984.50
2022-09-24T09:59:07.007Z,98978.44
2022-09-24T10:00:26.808Z,98973.25
2022-09-24T10:01:34.932Z,98973.47
2022-09-24T10:04:05.107Z,98970.47
2022-09-24T10:05:26.490Z,98970.84
2022-09-24T10:06:55.839Z,98975.56
2022-09-24T10:07:58.259Z,98971.13
2022-09-24T10:09:19.733Z,98970.81
2022-09-24T10:10:25.231Z,98975.31
2022-09-24T10:11:27.656Z,98975.84
2022-09-24T10:12:30.588Z,98982.44
2022-09-24T10:13:33.102Z,98978.78
2022-09-24T10:14:35.501Z,98973.09
2022-09-24T10:15:55.583Z,98980.94
2022-09-24T10:17:05.223Z,98970.13
2022-09-24T10:18:14.471Z,98973.06
2022-09-24T10:19:25.826Z,98962.44
2022-09-24T10:20:31.254Z,98975.66
2022-09-24T10:21:36.137Z,98974.25
2022-09-24T10:22:51.625Z,98977.31
2022-09-24T10:24:00.277Z,98980.78
2022-09-24T10:25:03.926Z,98976.56
2022-09-24T10:26:07.393Z,98975.69
2022-09-24T10:27:14.324Z,98970.94
2022-09-24T10:28:38.418Z,98973.47
2022-09-24T10:29:59.704Z,98970.22
2022-09-24T10:31:10.014Z,98969.25
2022-09-24T10:32:26.849Z,98969.06
2022-09-24T10:33:40.205Z,98968.66
2022-09-24T10:34:42.525Z,98965.56
2022-09-24T10:35:44.829Z,98974.72
2022-09-24T10:37:00.891Z,98971.22
2022-09-24T10:38:19.729Z,98974.22
2022-09-24T10:39:22.713Z,98972.63
2022-09-24T10:40:39.745Z,98974.94
2022-09-24T10:41:50.279Z,98974.22
2022-09-24T10:42:58.328Z,98971.59
2022-09-24T10:44:11.600Z,98982.28
2022-09-24T10:45:15.967Z,98971.81
2022-09-24T10:46:41.164Z,98977.94
2022-09-24T10:47:57.455Z,98979.16
2022-09-24T10:49:23.817Z,98974.22
2022-09-24T10:50:44.545Z,98969.06
2022-09-24T10:51:54.843Z,98975.13
2022-09-24T10:53:06.593Z,98958.56
2022-09-24T10:54:36.954Z,98968.66
2022-09-24T10:56:00.852Z,98973.72
2022-09-24T10:57:31.994Z,98973.09
2022-09-24T10:58:54.520Z,98975.88
2022-09-24T11:00:22.533Z,98968.34
2022-09-24T11:01:57.506Z,98971.09
2022-09-24T11:03:29.517Z,98974.34
2022-09-24T11:04:58.768Z,98968.41
2022-09-24T11:06:31.542Z,98969.38
2022-09-24T11:08:00.265Z,98963.56
2022-09-24T11:09:25.486Z,98967.34
2022-09-24T11:10:55.516Z,98963.31
2022-09-24T11:12:15.645Z,98964.06
2022-09-24T11:13:42.805Z,98950.66
2022-09-24T11:15:11.930Z,98965.81
2022-09-24T11:16:35.234Z,98961.75
2022-09-24T11:17:54.581Z,98964.84
2022-09-24T11:19:07.382Z,98960.16
2022-09-24T11:20:33.663Z,98964.63
2022-09-24T11:22:20.447Z,98953.09
2022-09-24T11:23:39.172Z,98958.63
2022-09-24T11:24:48.654Z,98953.69
2022-09-24T11:26:02.653Z,98956.72
2022-09-24T11:27:26.836Z,98955.06
2022-09-24T11:28:31.845Z,98952.31
2022-09-24T11:29:52.092Z,98946.16
2022-09-24T11:31:17.250Z,98945.88
2022-09-24T11:32:44.314Z,98942.78
2022-09-24T11:33:54.531Z,98929.88
2022-09-24T11:35:06.293Z,98945.75
2022-09-24T11:36:32.720Z,98939.31
2022-09-24T11:37:54.060Z,98938.78
2022-09-24T11:39:41.229Z,98927.34
2022-09-24T11:41:00.243Z,98932.09
2022-09-24T11:42:52.397Z,98926.66
2022-09-24T11:44:04.247Z,98934.47
2022-09-24T11:45:31.227Z,98929.84
2022-09-24T11:46:48.377Z,98934.34
2022-09-24T11:47:59.314Z,98928.31
2022-09-24T11:49:23.014Z,98941.63
2022-09-24T11:50:47.967Z,98940.66
2022-09-24T11:52:18.069Z,98934.28
2022-09-24T11:53:42.906Z,98920.06
2022-09-24T11:55:23.612Z,98926.28
2022-09-24T11:56:31.970Z,98926.13
2022-09-24T11:57:41.763Z,98926.81
2022-09-24T11:58:58.927Z,98929.75
2022-09-24T12:00:20.834Z,98934.34
2022-09-24T12:01:28.305Z,98932.03
2022-09-24T12:02:49.402Z,98927.50
2022-09-24T12:04:10.530Z,98932.41
2022-09-24T12:05:21.320Z,98928.00
2022-09-24T12:06:37.066Z,98923.47
2022-09-24T12:08:09.060Z,98919.44
2022-09-24T12:09:26.333Z,98925.09
2022-09-24T12:10:59.963Z,98919.09
2022-09-24T12:12:16.154Z,98923.88
2022-09-24T12:14:21.402Z,98920.00
2022-09-24T12:15:43.373Z,98923.50
2022-09-24T12:16:57.697Z,98916.78
2022-09-24T12:18:40.808Z,98923.06
2022-09-24T12:20:28.784Z,98920.50
2022-09-24T12:21:42.011Z,98909.22
2022-09-24T12:22:48.229Z,98924.13
2022-09-24T12:23:52.510Z,98922.97
2022-09-24T12:24:59.421Z,98921.69
2022-09-24T12:26:05.804Z,98926.09
2022-09-24T12:27:13.916Z,98925.78
2022-09-24T12:28:39.194Z,98929.09
2022-09-24T12:30:37.699Z,98926.72
2022-09-24T12:32:06.834Z,98927.00
2022-09-24T12:33:39.554Z,98912.53
2022-09-24T12:35:05.402Z,98917.91
2022-09-24T12:36:28.175Z,98917.34
2022-09-24T12:37:34.856Z,98915.78
2022-09-24T12:38:49.610Z,98917.56
2022-09-24T12:39:59.817Z,98925.16
2022-09-24T12:41:16.580Z,98923.41
2022-09-24T12:42:21.763Z,98921.13
2022-09-24T12:43:35.496Z,98914.16
2022-09-24T12:45:00.636Z,98915.81
2022-09-24T12:46:05.955Z,98909.03
2022-09-24T12:47:31.629Z,98906.88
2022-09-24T12:48:38.602Z,98905.44
2022-09-24T12:49:41.187Z,98901.09
2022-09-24T12:50:55.674Z,98889.16
2022-09-24T12:52:16.414Z,98898.91
2022-09-24T12:53:24.626Z,98899.91
2022-09-24T12:54:32.407Z,98903.19
2022-09-24T12:55:35.668Z,98905.47
2022-09-24T12:56:37.990Z,98907.44
2022-09-24T12:57:43.270Z,98904.13
2022-09-24T12:58:46.398Z,98900.47
2022-09-24T12:59:51.380Z,98903.16
2022-09-24T13:01:11.607Z,98896.72
2022-09-24T13:02:17.440Z,98898.19
2022-09-24T13:03:35.689Z,98899.88
2022-09-24T13:04:38.220Z,98895.91
2022-09-24T13:05:40.747Z,98904.69
2022-09-24T13:06:46.464Z,98901.28
2022-09-24T13:08:20.928Z,98908.81
2022-09-24T13:09:41.103Z,98904.63
2022-09-24T13:10:55.842Z,98898.66
2022-09-24T13:12:31.408Z,98900.34
2022-09-24T13:13:36.712Z,98899.59
2022-09-24T13:14:43.335Z,98890.44
2022-09-24T13:15:46.699Z,98891.25
2022-09-24T13:16:52.967Z,98887.81
2022-09-24T13:18:25.188Z,98887.00
2022-09-24T13:19:36.871Z,98892.69
2022-09-24T13:20:43.800Z,98882.63
2022-09-24T13:21:54.889Z,98878.91
2022-09-24T13:22:59.893Z,98893.03
2022-09-24T13:24:11.492Z,98882.19
2022-09-24T13:25:13.874Z,98882.03
2022-09-24T13:26:24.827Z,98883.00
2022-09-24T13:27:29.844Z,98892.44
2022-09-24T13:28:38.776Z,98889.03
2022-09-24T13:29:41.802Z,98889.19